createdAt,value
2023-03-10T00:03:01.234Z,7.32
2023-03-10T00:06:04.200Z,8.38
2023-03-10T00:09:06.548Z,10.63
2023-03-10T00:12:09.412Z,8.50
2023-03-10T00:15:12.918Z,10.70
2023-03-10T00:18:15.569Z,9.38
2023-03-10T00:21:21.385Z,12.60
2023-03-10T00:24:24.132Z,10.20
2023-03-10T00:27:26.823Z,10.77
2023-03-10T00:30:32.570Z,11.82
2023-03-10T00:33:36.386Z,11.02
2023-03-10T00:36:40.497Z,13.27
2023-03-10T00:39:45.367Z,12.97
2023-03-10T00:42:48.019Z,12.40
2023-03-10T00:45:50.366Z,13.57
2023-03-10T00:48:53.582Z,14.27
2023-03-10T00:51:55.986Z,10.60
2023-03-10T00:54:58.763Z,12.33
2023-03-10T00:58:01.822Z,12.23
2023-03-10T01:01:10.813Z,12.93
2023-03-10T01:04:19.010Z,12.80
2023-03-10T01:07:21.825Z,15.48
2023-03-10T01:10:24.169Z,13.97
2023-03-10T01:13:26.860Z,12.87
2023-03-10T01:16:30.338Z,14.70
2023-03-10T01:19:33.105Z,16.52
2023-03-10T01:22:36.391Z,18.87
2023-03-10T01:25:39.214Z,16.00
2023-03-10T01:28:41.658Z,23.10
2023-03-10T01:31:44.544Z,18.95
2023-03-10T01:34:47.094Z,14.40
2023-03-10T01:37:49.785Z,20.60
2023-03-10T01:40:52.233Z,14.57
2023-03-10T01:43:56.390Z,20.53
2023-03-10T01:46:59.372Z,16.85
2023-03-10T01:50:05.626Z,18.30
2023-03-10T01:53:08.634Z,18.80
2023-03-10T01:56:11.539Z,19.10
2023-03-10T01:59:14.705Z,17.30
2023-03-10T02:02:18.796Z,23.60
2023-03-10T02:05:22.364Z,17.90
2023-03-10T02:08:29.824Z,17.92
2023-03-10T02:11:33.090Z,21.43
2023-03-10T02:14:36.699Z,18.47
2023-03-10T02:17:40.827Z,20.92
2023-03-10T02:20:58.637Z,20.20
2023-03-10T02:24:15.367Z,18.02
2023-03-10T02:27:33.917Z,19.77
2023-03-10T02:30:39.038Z,19.13
2023-03-10T02:33:44.480Z,19.80
2023-03-10T02:36:47.064Z,21.48
2023-03-10T02:39:49.938Z,21.23
2023-03-10T02:42:52.533Z,17.00
2023-03-10T02:45:59.265Z,23.07
2023-03-10T02:49:04.770Z,19.73
2023-03-10T02:52:18.215Z,18.50
2023-03-10T02:55:20.716Z,20.42
2023-03-10T02:58:25.775Z,18.27
2023-03-10T03:01:30.589Z,19.23
2023-03-10T03:04:33.533Z,22.98
2023-03-10T03:07:36.357Z,20.90
2023-03-10T03:10:39.787Z,21.20
2023-03-10T03:13:42.847Z,22.70
2023-03-10T03:16:46.564Z,20.37
2023-03-10T03:19:49.435Z,20.98
2023-03-10T03:22:52.194Z,18.35
2023-03-10T03:25:54.640Z,19.67
2023-03-10T03:28:57.587Z,19.43
2023-03-10T03:32:01.070Z,17.77
2023-03-10T03:35:08.805Z,18.27
2023-03-10T03:38:11.643Z,21.52
2023-03-10T03:41:14.568Z,21.67
2023-03-10T03:44:19.477Z,22.27
2023-03-10T03:47:25.191Z,20.60
2023-03-10T03:50:28.188Z,25.23
2023-03-10T03:53:34.697Z,22.48
2023-03-10T03:56:38.117Z,20.98
2023-03-10T03:59:41.050Z,22.57
2023-03-10T04:02:43.680Z,20.93
2023-03-10T04:05:46.577Z,21.92
2023-03-10T04:08:50.242Z,23.15
2023-03-10T04:11:53.617Z,21.42
2023-03-10T04:14:56.479Z,25.20
2023-03-10T04:17:59.455Z,30.53
2023-03-10T04:21:02.485Z,23.67
2023-03-10T04:24:06.861Z,25.10
2023-03-10T04:27:09.603Z,24.75
2023-03-10T04:30:14.495Z,24.73
2023-03-10T04:33:17.370Z,21.50
2023-03-10T04:36:21.381Z,22.45
2023-03-10T04:39:24.287Z,23.90
2023-03-10T04:42:28.161Z,22.00
2023-03-10T04:45:31.529Z,24.77
2023-03-10T04:48:34.677Z,21.57
2023-03-10T04:51:37.155Z,20.67
2023-03-10T04:54:40.229Z,23.52
2023-03-10T04:57:42.691Z,23.85
2023-03-10T05:01:01.904Z,22.33
2023-03-10T05:04:05.933Z,21.20
2023-03-10T05:07:09.061Z,22.08
2023-03-10T05:10:12.613Z,18.75
2023-03-10T05:13:15.415Z,20.25
2023-03-10T05:16:20.262Z,17.30
2023-03-10T05:19:23.587Z,15.37
2023-03-10T05:22:27.029Z,16.75
2023-03-10T05:25:31.383Z,23.33
2023-03-10T05:28:34.302Z,21.30
2023-03-10T05:31:37.530Z,19.47
2023-03-10T05:34:40.412Z,20.37
2023-03-10T05:37:46.332Z,23.27
2023-03-10T05:40:48.745Z,18.30
2023-03-10T05:43:51.579Z,19.17
2023-03-10T05:46:54.722Z,18.97
2023-03-10T05:49:58.581Z,18.17
2023-03-10T05:53:01.172Z,18.33
2023-03-10T05:56:18.983Z,15.27
2023-03-10T05:59:22.152Z,18.05
2023-03-10T06:02:25.315Z,16.77
2023-03-10T06:05:28.105Z,14.50
2023-03-10T06:08:30.941Z,18.08
2023-03-10T06:11:33.657Z,15.98
2023-03-10T06:14:38.272Z,15.60
2023-03-10T06:17:41.436Z,15.90
2023-03-10T06:20:43.863Z,12.87
2023-03-10T06:23:46.506Z,12.30
2023-03-10T06:26:48.962Z,11.95
2023-03-10T06:29:51.609Z,11.65
2023-03-10T06:32:54.013Z,11.60
2023-03-10T06:35:57.248Z,12.83
2023-03-10T06:38:59.725Z,9.88
2023-03-10T06:42:02.489Z,10.45
2023-03-10T06:45:05.321Z,14.82
2023-03-10T06:48:08.154Z,10.30
2023-03-10T06:51:15.032Z,11.67
2023-03-10T06:54:17.750Z,12.63
2023-03-10T06:57:21.142Z,11.65
2023-03-10T07:00:23.990Z,11.27
2023-03-10T07:03:28.596Z,9.93
2023-03-10T07:06:31.305Z,10.10
2023-03-10T07:09:33.890Z,9.68
2023-03-10T07:12:36.544Z,9.93
2023-03-10T07:15:39.966Z,10.45
2023-03-10T07:18:43.170Z,9.47
2023-03-10T07:21:45.490Z,9.97
2023-03-10T07:24:48.090Z,9.38
2023-03-10T07:27:50.604Z,9.45
2023-03-10T07:30:53.710Z,12.20
2023-03-10T07:33:56.258Z,9.20
2023-03-10T07:36:59.158Z,7.60
2023-03-10T07:40:01.569Z,7.37
2023-03-10T07:43:04.285Z,6.57
2023-03-10T07:46:10.318Z,8.50
2023-03-10T07:49:13.039Z,7.73
2023-03-10T07:52:16.598Z,6.27
2023-03-10T07:55:19.278Z,7.80
2023-03-10T07:58:22.261Z,8.65
2023-03-10T08:01:25.043Z,11.27
2023-03-10T08:04:27.897Z,8.67
2023-03-10T08:07:31.983Z,7.03
2023-03-10T08:10:34.899Z,7.35
2023-03-10T08:13:38.087Z,7.10
2023-03-10T08:16:40.964Z,7.55
2023-03-10T08:19:43.827Z,6.87
2023-03-10T08:22:46.470Z,8.07
2023-03-10T08:25:48.849Z,9.77
2023-03-10T08:28:51.604Z,7.62
2023-03-10T08:31:54.105Z,7.30
2023-03-10T08:34:56.888Z,7.83
2023-03-10T08:37:59.385Z,5.13
2023-03-10T08:41:30.269Z,4.62
2023-03-10T08:44:32.685Z,6.57
2023-03-10T08:47:35.920Z,4.07
2023-03-10T08:50:38.324Z,4.93
2023-03-10T08:53:41.253Z,4.30
2023-03-10T08:56:44.046Z,7.57
2023-03-10T08:59:46.839Z,7.40
2023-03-10T09:02:49.271Z,6.25
2023-03-10T09:05:52.300Z,7.60
2023-03-10T09:08:54.858Z,6.87
2023-03-10T09:11:57.670Z,5.30
2023-03-10T09:15:00.040Z,5.85
2023-03-10T09:18:02.723Z,5.30
2023-03-10T09:21:05.336Z,11.30
2023-03-10T09:24:09.322Z,6.70
2023-03-10T09:27:11.779Z,9.90
2023-03-10T09:30:15.412Z,8.50
2023-03-10T09:33:20.007Z,9.55
2023-03-10T09:36:22.959Z,7.10
2023-03-10T09:39:25.706Z,6.80
2023-03-10T09:42:37.400Z,6.00
2023-03-10T09:45:47.970Z,7.22
2023-03-10T09:48:54.032Z,4.80
2023-03-10T09:51:56.584Z,6.37
2023-03-10T09:55:14.050Z,5.90
2023-03-10T09:58:41.944Z,4.93
2023-03-10T10:01:47.507Z,4.43
2023-03-10T10:04:53.823Z,4.47
2023-03-10T10:07:59.706Z,5.60
2023-03-10T10:11:03.666Z,6.33
2023-03-10T10:14:33.056Z,3.33
2023-03-10T10:18:02.845Z,5.55
2023-03-10T10:21:25.997Z,8.15
2023-03-10T10:24:30.995Z,6.05
2023-03-10T10:27:33.434Z,3.70
2023-03-10T10:30:40.612Z,4.78
2023-03-10T10:34:00.693Z,3.45
2023-03-10T10:37:20.053Z,5.93
2023-03-10T10:40:27.265Z,4.80
2023-03-10T10:43:31.427Z,5.17
2023-03-10T10:46:34.069Z,4.87
2023-03-10T10:49:37.348Z,5.72
2023-03-10T10:52:39.879Z,3.15
2023-03-10T10:55:45.505Z,3.62
2023-03-10T10:59:08.284Z,4.47
2023-03-10T11:02:34.931Z,3.22
2023-03-10T11:05:38.693Z,3.97
2023-03-10T11:08:45.180Z,2.55
2023-03-10T11:12:05.955Z,3.05
2023-03-10T11:15:14.781Z,2.60
2023-03-10T11:18:44.022Z,3.58
2023-03-10T11:21:52.226Z,5.30
2023-03-10T11:25:07.193Z,4.57
2023-03-10T11:28:16.921Z,2.83
2023-03-10T11:31:45.267Z,6.77
2023-03-10T11:34:54.100Z,6.18
2023-03-10T11:38:03.791Z,7.12
2023-03-10T11:41:19.364Z,3.45
2023-03-10T11:44:50.934Z,3.15
2023-03-10T11:48:24.246Z,3.03
2023-03-10T11:51:39.691Z,4.97
2023-03-10T11:55:16.507Z,3.05
2023-03-10T11:58:26.138Z,5.10
2023-03-10T12:01:34.420Z,4.15
2023-03-10T12:04:47.052Z,3.47
2023-03-10T12:07:53.505Z,4.32
2023-03-10T12:10:57.601Z,3.00
2023-03-10T12:14:01.805Z,6.10
2023-03-10T12:17:05.509Z,2.58
2023-03-10T12:20:12.206Z,5.80
2023-03-10T12:23:42.309Z,3.67
2023-03-10T12:26:45.209Z,2.40
2023-03-10T12:29:48.217Z,6.70
2023-03-10T12:32:50.703Z,3.78
2023-03-10T12:35:55.870Z,6.10
2023-03-10T12:39:22.359Z,3.62
2023-03-10T12:42:30.143Z,4.65
2023-03-10T12:45:34.270Z,3.35
2023-03-10T12:48:43.358Z,2.60
2023-03-10T12:51:52.088Z,5.20
2023-03-10T12:55:02.967Z,3.12
2023-03-10T12:58:17.183Z,3.42
2023-03-10T13:01:23.718Z,4.75
2023-03-10T13:04:27.772Z,2.78
2023-03-10T13:07:31.412Z,5.30
2023-03-10T13:10:35.762Z,6.37
2023-03-10T13:13:40.024Z,3.62
2023-03-10T13:16:53.661Z,4.70
2023-03-10T13:20:20.325Z,5.72
2023-03-10T13:23:32.596Z,4.50
2023-03-10T13:26:35.342Z,6.20
2023-03-10T13:29:38.052Z,4.43
2023-03-10T13:32:41.423Z,6.35
2023-03-10T13:35:44.123Z,6.50
2023-03-10T13:38:46.820Z,4.20
2023-03-10T13:41:52.011Z,7.22
2023-03-10T13:44:55.802Z,4.18
2023-03-10T13:48:02.816Z,7.03
2023-03-10T13:51:21.296Z,7.03
2023-03-10T13:54:28.041Z,4.40
2023-03-10T13:57:34.871Z,5.20
2023-03-10T14:00:37.378Z,4.15
2023-03-10T14:03:49.439Z,5.35
2023-03-10T14:07:07.882Z,7.68
2023-03-10T14:10:14.630Z,5.17
2023-03-10T14:13:39.329Z,6.95
2023-03-10T14:16:54.694Z,4.55
2023-03-10T14:19:57.712Z,4.47
2023-03-10T14:23:23.567Z,6.57
2023-03-10T14:26:26.200Z,5.47
2023-03-10T14:29:30.870Z,6.35
2023-03-10T14:32:33.406Z,5.28
2023-03-10T14:35:36.114Z,5.93
2023-03-10T14:38:39.459Z,9.23
2023-03-10T14:41:42.252Z,7.97
2023-03-10T14:44:44.896Z,4.70
2023-03-10T14:47:47.633Z,5.80
2023-03-10T14:50:50.611Z,4.25
2023-03-10T14:53:53.303Z,2.80
2023-03-10T14:57:01.592Z,8.17
2023-03-10T15:00:06.709Z,4.00
2023-03-10T15:03:13.572Z,4.72
2023-03-10T15:06:19.163Z,4.47
2023-03-10T15:09:22.880Z,5.32
2023-03-10T15:12:25.615Z,4.57
2023-03-10T15:15:39.498Z,3.47
2023-03-10T15:18:42.269Z,4.78
2023-03-10T15:21:44.677Z,6.53
2023-03-10T15:24:47.355Z,3.73
2023-03-10T15:27:51.372Z,5.73
2023-03-10T15:30:54.809Z,5.50
2023-03-10T15:33:57.200Z,3.80
2023-03-10T15:37:01.158Z,9.55
2023-03-10T15:40:04.462Z,4.10
2023-03-10T15:43:07.571Z,5.13
2023-03-10T15:46:10.034Z,4.70
2023-03-10T15:49:12.804Z,5.85
2023-03-10T15:52:15.663Z,6.35
2023-03-10T15:55:18.714Z,6.40
2023-03-10T15:58:21.155Z,7.10
2023-03-10T16:01:23.816Z,7.87
2023-03-10T16:04:26.680Z,5.95
2023-03-10T16:07:29.152Z,6.80
2023-03-10T16:10:35.109Z,5.93
2023-03-10T16:13:37.570Z,7.63
2023-03-10T16:16:40.435Z,6.28
2023-03-10T16:19:42.976Z,7.55
2023-03-10T16:22:45.657Z,9.75
2023-03-10T16:26:10.735Z,6.70
2023-03-10T16:29:13.881Z,6.03
2023-03-10T16:32:17.786Z,7.43
2023-03-10T16:38:23.375Z,6.12
2023-03-10T16:41:27.395Z,6.03
2023-03-10T16:44:30.972Z,12.03
2023-03-10T16:47:33.720Z,7.50
2023-03-10T16:50:36.335Z,10.70
2023-03-10T16:53:39.062Z,7.93
2023-03-10T16:56:47.861Z,8.60
2023-03-10T16:59:50.575Z,9.50
2023-03-10T17:02:53.045Z,7.25
2023-03-10T17:05:55.832Z,10.35
2023-03-10T17:08:59.758Z,10.05
2023-03-10T17:12:02.855Z,8.93
2023-03-10T17:15:05.664Z,8.87
2023-03-10T17:18:08.252Z,8.13
2023-03-10T17:21:16.266Z,8.05
2023-03-10T17:24:20.653Z,11.80
2023-03-10T17:27:23.761Z,8.00
2023-03-10T17:30:26.656Z,9.90
2023-03-10T17:33:29.099Z,10.35
2023-03-10T17:36:31.865Z,10.00
2023-03-10T17:39:35.372Z,9.88
2023-03-10T17:42:38.107Z,11.13
2023-03-10T17:45:40.556Z,10.97
2023-03-10T17:48:43.807Z,9.30
2023-03-10T17:51:47.130Z,15.35
2023-03-10T17:54:50.866Z,10.95
2023-03-10T17:57:53.305Z,9.43
2023-03-10T18:00:55.985Z,10.10
2023-03-10T18:04:00.369Z,17.10
2023-03-10T18:07:03.012Z,11.12
2023-03-10T18:10:06.792Z,12.80
2023-03-10T18:13:11.336Z,11.07
2023-03-10T18:16:35.507Z,12.00
2023-03-10T18:19:38.761Z,15.50
2023-03-10T18:22:41.471Z,14.52
2023-03-10T18:25:44.258Z,13.40
2023-03-10T18:28:47.220Z,18.13
2023-03-10T18:31:49.675Z,14.20
2023-03-10T18:34:52.723Z,13.82
2023-03-10T18:37:55.105Z,15.00
2023-03-10T18:40:59.405Z,13.75
2023-03-10T18:44:02.107Z,18.93
2023-03-10T18:47:04.890Z,12.17
2023-03-10T18:50:07.677Z,13.52
2023-03-10T18:53:10.510Z,15.57
2023-03-10T18:56:12.920Z,17.08
2023-03-10T18:59:15.622Z,17.67
2023-03-10T19:02:18.075Z,15.53
2023-03-10T19:05:21.383Z,19.12
2023-03-10T19:08:24.827Z,14.60
2023-03-10T19:11:35.297Z,21.58
2023-03-10T19:14:37.786Z,17.30
2023-03-10T19:17:40.606Z,16.60
2023-03-10T19:20:43.888Z,22.42
2023-03-10T19:23:46.506Z,17.37
2023-03-10T19:26:49.709Z,20.23
2023-03-10T19:29:52.838Z,18.07
2023-03-10T19:32:55.238Z,17.23
2023-03-10T19:36:05.815Z,16.48
2023-03-10T19:39:08.294Z,14.63
2023-03-10T19:42:11.078Z,15.85
2023-03-10T19:45:16.825Z,17.07
2023-03-10T19:48:19.580Z,16.33
2023-03-10T19:51:25.155Z,15.13
2023-03-10T19:54:27.992Z,18.23
2023-03-10T19:57:30.357Z,13.98
2023-03-10T20:00:36.116Z,14.33
2023-03-10T20:03:39.057Z,15.77
2023-03-10T20:06:41.837Z,16.67
2023-03-10T20:09:44.616Z,13.93
2023-03-10T20:12:47.322Z,15.40
2023-03-10T20:15:50.139Z,13.13
2023-03-10T20:18:52.596Z,12.83
2023-03-10T20:21:55.274Z,13.73
2023-03-10T20:24:57.770Z,14.68
2023-03-10T20:28:00.415Z,13.70
2023-03-10T20:31:03.363Z,14.43
2023-03-10T20:34:07.256Z,15.17
2023-03-10T20:37:09.657Z,14.75
2023-03-10T20:40:16.108Z,13.70
2023-03-10T20:43:18.807Z,12.05
2023-03-10T20:46:22.937Z,10.93
2023-03-10T20:49:25.517Z,16.00
2023-03-10T20:52:28.124Z,11.98
2023-03-10T20:55:32.109Z,13.10
2023-03-10T20:58:34.858Z,12.40
2023-03-10T21:01:39.837Z,11.10
2023-03-10T21:04:42.905Z,12.70
2023-03-10T21:07:45.858Z,10.30
2023-03-10T21:10:49.489Z,13.43
2023-03-10T21:13:53.087Z,11.07
2023-03-10T21:16:59.907Z,11.90
2023-03-10T21:20:06.730Z,11.40
2023-03-10T21:23:09.684Z,9.85
2023-03-10T21:26:18.782Z,16.58
2023-03-10T21:29:21.768Z,11.55
2023-03-10T21:32:26.476Z,13.07
2023-03-10T21:35:31.961Z,11.33
2023-03-10T21:38:36.645Z,11.18
2023-03-10T21:41:39.656Z,9.82
2023-03-10T21:44:42.012Z,9.73
2023-03-10T21:47:45.358Z,10.23
2023-03-10T21:50:47.768Z,12.90
2023-03-10T21:53:53.727Z,10.65
2023-03-10T21:56:59.319Z,12.60
2023-03-10T22:00:02.026Z,13.13
2023-03-10T22:03:10.118Z,11.63
2023-03-10T22:06:12.743Z,11.60
2023-03-10T22:09:15.533Z,11.68
2023-03-10T22:12:18.648Z,13.18
2023-03-10T22:15:25.505Z,14.63
2023-03-10T22:18:28.168Z,11.13
2023-03-10T22:21:30.848Z,10.80
2023-03-10T22:24:33.539Z,13.85
2023-03-10T22:27:35.952Z,12.15
2023-03-10T22:30:39.571Z,11.15
2023-03-10T22:33:41.953Z,10.23
2023-03-10T22:36:44.596Z,10.90
2023-03-10T22:39:46.991Z,9.10
2023-03-10T22:42:49.654Z,11.18
2023-03-10T22:45:52.131Z,9.38
2023-03-10T22:48:54.833Z,9.43
2023-03-10T22:51:57.437Z,8.13
2023-03-10T22:55:00.354Z,10.63
2023-03-10T22:58:07.222Z,8.05
2023-03-10T23:01:10.036Z,8.75
2023-03-10T23:04:12.768Z,7.23
2023-03-10T23:07:15.451Z,7.73
2023-03-10T23:10:25.864Z,8.32
2023-03-10T23:13:28.527Z,7.62
2023-03-10T23:16:36.629Z,9.45
2023-03-10T23:19:39.300Z,9.03
2023-03-10T23:22:43.887Z,6.97
2023-03-10T23:25:50.919Z,7.35
2023-03-10T23:28:53.443Z,7.50
2023-03-10T23:31:56.260Z,10.32
2023-03-10T23:34:58.710Z,7.07
2023-03-10T23:38:03.101Z,7.67
2023-03-10T23:41:06.767Z,7.47
2023-03-10T23:44:09.435Z,8.10
2023-03-10T23:47:11.802Z,6.80
2023-03-10T23:50:18.863Z,7.33
2023-03-10T23:53:21.266Z,9.13
2023-03-10T23:56:24.047Z,8.13
2023-03-10T23:59:26.491Z,7.57
